Portada
METAR-TAF:

METAR-TAF

Aeropuertos :

Aeropuerto de Okadama

Sapporo, Japón

latitud: 43-07N, longitud: 141-23E, altitud: 8 m

Observación

El informe se hizo hace 1 hora y 19 minutos, a las 09:00 UTC
Viento 10 kt del suroeste
Temperatura 25°C
Humedad 50%
Presión 1003 hPa
Visibilidad 10 km o más
Escasas nubes a una altura de 4000 ft
Cielo nuboso a una altura de 9000 ft

METAR: RJCO 170900Z 22010KT 9999 FEW040 BKN090 25/14 Q1003

Hora: 19:19 (10:19 UTC)


TAF: falta

Observaciones y pronósticos meteorológicos de más de 4000 aeropuertos (mensajes METAR y TAF).

Los puntos amarillos y rojos representan las estaciones disponibles.

Ponga el ratón en el punto deseado para ver el nombre de la estación.

Haga clic para ver las observaciones y los pronósticos meteorológicos.

Para cambiar el mapa : haga clic en los botones verdes con una cruz de color negro para hacer un zoom, en el botón verde con un guión para alejar o en las flechas verdes para mapas adyacentes.


METAR-TAF: